Flight Track Log - Related Links

Times and Time Zones

All times are in EDT time to prevent confusion due to time zone crossing. See the UAL4695 flight status page for this flight to view local times or setup timezone preferences in your user account.

Time Position Orientation Groundspeed Altitude Reporting Facility
EDT Latitude Longitude Course Direction KTS MPH feet Rate Location/Type
Thu 10:27:04 PM 42.0167 -87.9500 345° North 175 201 2,600  Level Chicago TRACON
Thu 10:27:52 PM 42.0500 -88.0000 312° West 208 239 4,100 2,348 Climbing Chicago TRACON
Thu 10:29:22 PM 42.1369 -88.0347 344° North 247 284 8,000 2,424 Climbing Chicago Center
Thu 10:30:00 PM 42.3500 -88.0276 270° West  Level FlightAware Approximate
Thu 10:30:23 PM 42.2061 -88.0242 North 262 302 10,200  Level Chicago Center
Thu 10:31:00 PM 42.4447 -88.0556 352° North  Level FlightAware Approximate
Thu 10:31:24 PM 42.2836 -88.0139 North 277 319 12,400  Level Chicago Center
Thu 10:32:00 PM 42.5396 -88.0915 345° North  Level FlightAware Approximate
Thu 10:32:26 PM 42.3703 -88.0308 352° North 300 345 13,800  Level Chicago Center
Thu 10:33:27 PM 42.4547 -88.0697 341° North 317 365 15,400 1,561 Climbing Chicago Center
Thu 10:34:29 PM 42.5339 -88.1317 330° Northwest 326 375 17,000 1,561 Climbing Chicago Center
Thu 10:35:30 PM 42.6161 -88.1908 332° Northwest 329 379 18,600 1,561 Climbing Chicago Center
Thu 10:36:32 PM 42.6978 -88.2508 332° Northwest 332 382 20,200 1,756 Climbing Chicago Center
Thu 10:37:33 PM 42.7958 -88.3236 331° Northwest 334 384 22,200 1,854 Climbing Chicago Center
Thu 10:38:35 PM 42.8761 -88.3819 332° Northwest 329 379 24,000 1,707 Climbing Chicago Center
Thu 10:39:36 PM 42.9522 -88.4397 331° Northwest 317 365 25,700 1,574 Climbing Chicago Center
Thu 10:40:37 PM 43.0275 -88.4956 332° Northwest 311 358 27,200 1,366 Climbing Chicago Center
Thu 10:41:39 PM 43.1028 -88.5506 332° Northwest 308 354 28,500 1,220 Climbing Chicago Center
Thu 10:42:40 PM 43.1783 -88.6053 332° Northwest 306 352 29,700 1,171 Climbing Chicago Center
Thu 10:43:42 PM 43.2528 -88.6617 331° Northwest 306 352 30,900 1,171 Climbing Chicago Center
Thu 10:44:43 PM 43.3275 -88.7175 331° Northwest 306 352 32,100 1,180 Climbing Chicago Center
Thu 10:45:44 PM 43.4017 -88.7733 331° Northwest 305 351 33,300 976 Climbing Chicago Center
Thu 10:46:46 PM 43.4758 -88.8303 331° Northwest 304 350 34,100 829 Climbing Chicago Center
Thu 10:47:47 PM 43.5503 -88.8864 331° Northwest 304 350 35,000 878 Climbing Chicago Center
Thu 10:48:49 PM 43.6406 -88.9539 332° Northwest 306 352 35,900 488 Climbing Chicago Center
Thu 10:49:50 PM 43.7161 -89.0119 331° Northwest 306 352 36,000 49 Climbing Chicago Center
Thu 10:50:51 PM 43.7975 -89.0756 331° Northwest 324 373 36,000  Level Chicago Center
Thu 10:51:53 PM 43.8833 -89.1403 331° Northwest 344 396 36,000  Level Chicago Center
Thu 10:52:54 PM 43.9731 -89.2103 331° Northwest 364 419 36,000  Level Chicago Center
Thu 10:53:55 PM 44.0653 -89.2825 331° Northwest 375 432 36,000  Level Chicago Center
Thu 10:54:56 PM 44.1606 -89.3564 331° Northwest 385 443 36,000  Level Chicago Center
Thu 10:55:57 PM 44.2550 -89.4286 331° Northwest 392 451 36,000  Level Chicago Center
Thu 10:56:59 PM 44.3425 -89.5189 324° Northwest 390 449 36,000  Level Chicago Center
Thu 10:58:00 PM 44.4300 -89.6094 324° Northwest 391 450 36,000  Level Chicago Center
Thu 10:59:01 PM 44.5361 -89.7181 324° Northwest 392 451 36,000  Level Chicago Center
Thu 11:00:02 PM 44.6253 -89.8103 324° Northwest 396 456 36,000  Level Chicago Center
Thu 11:01:03 PM 44.7133 -89.9039 323° Northwest 396 456 36,000  Level Chicago Center
Thu 11:02:04 PM 44.8008 -89.9975 323° Northwest 396 456 36,000  Level Chicago Center
Thu 11:03:05 PM 44.8900 -90.0892 324° Northwest 396 456 36,000  Level Chicago Center
Thu 11:04:06 PM 44.9789 -90.1814 324° Northwest 397 457 36,000  Level Chicago Center
Thu 11:05:25 PM 45.0908 -90.3025 323° Northwest 397 457 36,000  Level Minneapolis Center
Thu 11:06:26 PM 45.1792 -90.3978 323° Northwest 397 457 36,000  Level Minneapolis Center
Thu 11:07:28 PM 45.2681 -90.4922 323° Northwest 397 457 36,000  Level Minneapolis Center
Thu 11:08:29 PM 45.3564 -90.5878 323° Northwest 397 457 36,000  Level Minneapolis Center
Thu 11:09:30 PM 45.4444 -90.6836 323° Northwest 397 457 36,000  Level Minneapolis Center
Thu 11:10:31 PM 45.5511 -90.7994 323° Northwest 398 458 36,000  Level Minneapolis Center
Thu 11:11:33 PM 45.6403 -90.8961 323° Northwest 399 459 36,000  Level Minneapolis Center
Thu 11:12:34 PM 45.7294 -90.9956 322° Northwest 402 463 36,000  Level Minneapolis Center
Thu 11:13:35 PM 45.8203 -91.0942 323° Northwest 405 466 36,000  Level Minneapolis Center
Thu 11:14:36 PM 45.9103 -91.1936 322° Northwest 406 467 36,000  Level Minneapolis Center
Thu 11:15:38 PM 46.0011 -91.2950 322° Northwest 410 472 36,000  Level Minneapolis Center
Thu 11:16:39 PM 46.0911 -91.3958 322° Northwest 410 472 36,000  Level Minneapolis Center
Thu 11:17:40 PM 46.1811 -91.4958 322° Northwest 409 471 36,000  Level Minneapolis Center
Thu 11:18:41 PM 46.2761 -91.6050 322° Northwest 409 471 36,000  Level Minneapolis Center
Thu 11:19:43 PM 46.3667 -91.7047 323° Northwest 409 471 36,000  Level Minneapolis Center
Thu 11:20:44 PM 46.4464 -91.8203 315° West 409 471 36,000  Level Minneapolis Center
Thu 11:21:45 PM 46.5100 -91.9547 305° West 407 468 36,000  Level Minneapolis Center
Thu 11:22:46 PM 46.5778 -92.0869 307° West 407 468 36,000  Level Minneapolis Center
Thu 11:23:47 PM 46.6436 -92.2194 306° West 407 468 36,000  Level Minneapolis Center
Thu 11:24:48 PM 46.7100 -92.3531 306° West 407 468 36,000  Level Minneapolis Center
Thu 11:25:50 PM 46.7889 -92.5153 305° West 407 468 36,000  Level Minneapolis Center
Thu 11:26:51 PM 46.8542 -92.6503 305° West 407 468 36,000  Level Minneapolis Center
Thu 11:27:52 PM 46.9197 -92.7839 306° West 407 468 36,000  Level Minneapolis Center
Thu 11:28:53 PM 46.9850 -92.9197 305° West 407 468 36,000  Level Minneapolis Center
Thu 11:29:54 PM 47.0503 -93.0547 305° West 407 468 36,000  Level Minneapolis Center
Thu 11:30:55 PM 47.1158 -93.1911 305° West 407 468 36,000  Level Minneapolis Center
Thu 11:31:56 PM 47.1831 -93.3289 306° West 407 468 36,000  Level Minneapolis Center
Thu 11:32:57 PM 47.2481 -93.4675 305° West 407 468 36,000  Level Minneapolis Center
Thu 11:33:58 PM 47.3131 -93.6064 305° West 407 468 36,000  Level Minneapolis Center
Thu 11:34:59 PM 47.3783 -93.7450 305° West 407 468 36,000  Level Minneapolis Center
Thu 11:36:00 PM 47.4422 -93.8836 304° West 407 468 36,000  Level Minneapolis Center
Thu 11:37:01 PM 47.5058 -94.0217 304° West 407 468 36,000  Level Minneapolis Center
Thu 11:38:02 PM 47.5703 -94.1619 304° West 409 471 36,000  Level Minneapolis Center
Thu 11:39:03 PM 47.6339 -94.3003 304° West 409 471 36,000  Level Minneapolis Center
Thu 11:40:04 PM 47.6967 -94.4392 304° West 408 470 36,000  Level Minneapolis Center
Thu 11:41:05 PM 47.7600 -94.5789 304° West 408 470 36,000  Level Minneapolis Center
Thu 11:42:07 PM 47.8367 -94.7478 304° West 409 471 36,000  Level Minneapolis Center
Thu 11:43:08 PM 47.8992 -94.8883 304° West 409 471 36,000  Level Minneapolis Center
Thu 11:44:08 PM 47.9622 -95.0294 304° West 409 471 36,000  Level Minneapolis Center
Thu 11:45:09 PM 48.0261 -95.1711 304° West 409 471 36,000  Level Minneapolis Center
Thu 11:46:10 PM 48.0892 -95.3125 304° West 410 472 36,000  Level Minneapolis Center
Thu 11:47:11 PM 48.1522 -95.4564 303° West 410 472 36,000  Level Minneapolis Center
Thu 11:48:12 PM 48.2100 -95.5864 304° West 411 473 36,000  Level Minneapolis Center
Thu 11:49:13 PM 48.2719 -95.7311 303° West 411 473 36,000  Level Minneapolis Center
Thu 11:50:14 PM 48.3489 -95.9039 304° West 412 474 36,000  Level Minneapolis Center
Thu 11:51:14 PM 48.4097 -96.0486 302° West 412 474 36,000  Level Minneapolis Center
Thu 11:52:15 PM 48.4711 -96.1917 303° West 412 474 36,000  Level Minneapolis Center
Thu 11:53:16 PM 48.5331 -96.3381 303° West 412 474 36,000  Level Minneapolis Center
Thu 11:54:17 PM 48.5953 -96.4831 303° West 412 474 36,000  Level Minneapolis Center
Thu 11:55:18 PM 48.6569 -96.6289 303° West 412 474 36,000  Level Minneapolis Center
Thu 11:56:18 PM 48.7183 -96.7750 303° West 412 474 36,000  Level Minneapolis Center
Thu 11:57:09 PM 48.7667 -96.8833 304° West 410 472 36,000  Level Winnipeg Center
Thu 11:58:09 PM 48.8333 -97.0500 301° West 410 472 36,000  Level Winnipeg Center
Thu 11:59:20 PM 48.9000 -97.2125 302° West 412 474 36,000  Level Minneapolis Center
Fri 12:00:21 AM 48.9603 -97.3608 302° West 412 474 36,000  Level Minneapolis Center
Fri 12:01:09 AM 49.0000 -97.4833 296° West 410 472 36,000  Level Winnipeg Center
Fri 12:02:09 AM 49.0500 -97.6500 295° West 420 483 36,000  Level Winnipeg Center
Fri 12:03:09 AM 49.1167 -97.7833 307° West 420 483 36,000  Level Winnipeg Center
Fri 12:04:09 AM 49.1833 -97.9333 304° West 420 483 36,000  Level Winnipeg Center
Fri 12:05:09 AM 49.2333 -98.1000 295° West 420 483 36,000  Level Winnipeg Center
Fri 12:06:09 AM 49.3000 -98.2500 304° West 420 483 36,000  Level Winnipeg Center
Fri 12:07:09 AM 49.3667 -98.4000 304° West 420 483 36,000  Level Winnipeg Center
Fri 12:08:09 AM 49.4167 -98.5667 295° West 420 483 36,000  Level Winnipeg Center
Fri 12:09:09 AM 49.4833 -98.7167 304° West 420 483 36,000  Level Winnipeg Center
Fri 12:10:09 AM 49.5500 -98.8667 304° West 420 483 36,000  Level Winnipeg Center
Fri 12:11:09 AM 49.6167 -99.0333 302° West 420 483 36,000  Level Winnipeg Center
Fri 12:12:09 AM 49.6667 -99.1833 297° West 420 483 36,000  Level Winnipeg Center
Fri 12:13:09 AM 49.7167 -99.3500 295° West 420 483 36,000  Level Winnipeg Center
Fri 12:14:09 AM 49.7833 -99.4833 308° West 420 483 36,000  Level Winnipeg Center
Fri 12:15:09 AM 49.8500 -99.6667 299° West 420 483 36,000  Level Winnipeg Center
Fri 12:16:09 AM 49.9000 -99.8000 300° West 420 483 36,000  Level Winnipeg Center
Fri 12:17:09 AM 49.9500 -99.9833 293° West 420 483 36,000  Level Winnipeg Center
Fri 12:18:09 AM 50.0167 -100.1167 308° West 420 483 36,000  Level Winnipeg Center
Fri 12:19:09 AM 50.0833 -100.2833 302° West 420 483 36,000  Level Winnipeg Center
Fri 12:20:09 AM 50.1500 -100.4333 305° West 430 495 36,000  Level Winnipeg Center
Fri 12:21:09 AM 50.1833 -100.6000 287° West 430 495 36,000  Level Winnipeg Center
Fri 12:22:09 AM 50.2500 -100.7833 300° West 420 483 36,000  Level Winnipeg Center
Fri 12:23:09 AM 50.3167 -100.9167 308° West 420 483 36,000  Level Winnipeg Center
Fri 12:24:09 AM 50.3667 -101.0833 295° West 420 483 36,000  Level Winnipeg Center
Fri 12:25:09 AM 50.4167 -101.2500 295° West 420 483 36,000  Level Winnipeg Center
Fri 12:26:09 AM 50.4833 -101.4167 302° West 420 483 36,000  Level Winnipeg Center
Fri 12:27:09 AM 50.5333 -101.5833 295° West 430 495 36,000  Level Winnipeg Center
Fri 12:28:09 AM 50.6000 -101.7333 305° West 420 483 36,000  Level Winnipeg Center
Fri 12:29:09 AM 50.6500 -101.9000 295° West 420 483 36,000  Level Winnipeg Center
Fri 12:30:09 AM 50.7000 -102.0667 295° West 420 483 36,000  Level Winnipeg Center
Fri 12:31:09 AM 50.7667 -102.2333 302° West 420 483 36,000  Level Winnipeg Center
Fri 12:32:09 AM 50.8167 -102.4000 295° West 420 483 36,000  Level Winnipeg Center
Fri 12:33:09 AM 50.8667 -102.5667 295° West 420 483 36,000  Level Winnipeg Center
Fri 12:34:09 AM 50.9167 -102.7333 296° West 420 483 36,000  Level Winnipeg Center
Fri 12:35:09 AM 50.9833 -102.9000 302° West 420 483 36,000  Level Winnipeg Center
Fri 12:36:09 AM 51.0333 -103.0667 296° West 420 483 36,000  Level Winnipeg Center
Fri 12:37:09 AM 51.0833 -103.2333 296° West 420 483 36,000  Level Winnipeg Center
Fri 12:38:09 AM 51.1500 -103.3667 309° West 420 483 36,000  Level Winnipeg Center
Fri 12:39:09 AM 51.2000 -103.5667 292° West 420 483 36,000  Level Winnipeg Center
Fri 12:40:09 AM 51.2500 -103.7167 298° West 420 483 36,000  Level Winnipeg Center
Fri 12:41:09 AM 51.3167 -103.9000 300° West 420 483 36,000  Level Winnipeg Center
Fri 12:42:09 AM 51.3500 -104.0500 290° West 420 483 36,000  Level Winnipeg Center
Fri 12:43:09 AM 51.4167 -104.2500 298° West 430 495 36,000 -850 Level Winnipeg Center
Fri 12:44:09 AM 51.4667 -104.3833 301° West 430 495 34,300 -1,900 Descending Winnipeg Center
Fri 12:45:09 AM 51.5000 -104.5667 286° West 420 483 32,200 -2,350 Descending Winnipeg Center
Fri 12:46:09 AM 51.5667 -104.7333 303° West 410 472 29,600 -2,600 Descending Winnipeg Center
Fri 12:47:09 AM 51.6000 -104.9000 288° West 400 460 27,000 -2,350 Descending Winnipeg Center
Fri 12:48:09 AM 51.6333 -105.0667 288° West 390 449 24,900 -2,100 Descending Winnipeg Center
Fri 12:49:09 AM 51.6833 -105.2167 298° West 380 437 22,800 -2,250 Descending Winnipeg Center
Fri 12:50:09 AM 51.7167 -105.3833 288° West 370 426 20,400 -2,300 Descending Winnipeg Center
Fri 12:51:09 AM 51.7500 -105.5167 292° West 370 426 18,200 -2,150 Descending Winnipeg Center
Fri 12:52:09 AM 51.7833 -105.6667 290° West 350 403 16,100 -2,550 Descending Winnipeg Center
Fri 12:53:09 AM 51.8000 -105.8000 281° West 330 380 13,100 -2,400 Descending Winnipeg Center
Fri 12:54:09 AM 51.8333 -105.9500 290° West 310 357 11,300 -1,150 Descending Winnipeg Center
Fri 12:55:09 AM 51.8667 -106.0833 292° West 320 368 10,800 -600 Descending Winnipeg Center
Fri 12:56:09 AM 51.9000 -106.2000 295° West 270 311 10,100 -950 Descending Winnipeg Center
Fri 12:57:09 AM 51.9000 -106.3167 270° West 240 276 8,900 -1,650 Descending Winnipeg Center
Fri 12:58:09 AM 51.9333 -106.4000 303° West 240 276 6,800 -1,950 Descending Winnipeg Center
Fri 12:59:09 AM 51.9500 -106.5167 283° West 240 276 5,000 -1,700 Descending Winnipeg Center
Fri 01:00:09 AM 52.0000 -106.5833 321° Northwest 220 253 3,400 -1,050 Descending Winnipeg Center
Fri 01:01:09 AM 52.0500 -106.6167 338° Northwest 170 196 2,900 -250 Descending Winnipeg Center
Fri 01:02:09 AM 52.0833 -106.6500 328° Northwest 160 184 2,900 -200 Level Winnipeg Center
Fri 01:03:09 AM 52.1000 -106.6833 309° West 130 150 2,500 -500 Descending Winnipeg Center
Fri 01:04:09 AM 52.1333 -106.7167 328° Northwest 120 138 1,900 -600 Descending Winnipeg Center

Login

Don't have an account? Register now (free) for customized features, flight alerts, and more!